Time;durP1;ratioP1;P1;durP2;ratioP2;P2;SDS_P1;SDS_P2;PMS_P1;PMS_P2;Temp;Humidity;BMP_temperature;BMP_pressure;BME280_temperature;BME280_humidity;BME280_pressure;Samples;Min_cycle;Max_cycle;Signal;HPM_P1;HPM_P2
2023/10/26 00:01:24;;;;;;;5.50;3.45;;;;;;;14.36;100.00;98552.56;6345572;28;20040;-72
2023/10/26 00:04:25;;;;;;;7.57;2.97;;;;;;;14.36;100.00;98552.56;6345718;28;20048;-72
2023/10/26 00:07:29;;;;;;;5.25;2.95;;;;;;;14.31;100.00;98547.78;6346723;28;20055;-72
2023/10/26 00:10:30;;;;;;;5.30;3.40;;;;;;;14.42;100.00;98549.31;6345477;28;20047;-72
2023/10/26 00:13:31;;;;;;;6.47;3.05;;;;;;;14.45;100.00;98535.06;6345827;28;20059;-72
2023/10/26 00:16:32;;;;;;;4.50;3.28;;;;;;;14.35;100.00;98539.59;6345594;28;20050;-72
2023/10/26 00:19:36;;;;;;;7.63;3.50;;;;;;;14.33;100.00;98539.75;6345319;28;20354;-72
2023/10/26 00:22:37;;;;;;;4.78;3.00;;;;;;;14.22;100.00;98545.25;6345314;28;20408;-72
2023/10/26 00:25:38;;;;;;;7.47;2.95;;;;;;;14.29;100.00;98534.00;6355859;27;20047;-72
2023/10/26 00:28:39;;;;;;;3.55;2.70;;;;;;;14.26;100.00;98538.72;6370738;27;20084;-73
2023/10/26 00:31:40;;;;;;;4.72;2.42;;;;;;;14.29;100.00;98530.56;6370596;27;20051;-73
2023/10/26 00:34:42;;;;;;;3.55;2.63;;;;;;;14.27;100.00;98522.03;6370777;27;20054;-73
2023/10/26 00:37:42;;;;;;;5.28;2.97;;;;;;;14.24;100.00;98514.44;6371817;27;20058;-73
2023/10/26 00:40:43;;;;;;;3.83;2.42;;;;;;;14.43;100.00;98516.88;6370791;28;20246;-72
2023/10/26 00:43:45;;;;;;;3.63;2.17;;;;;;;14.30;100.00;98500.72;6371664;27;20083;-73
2023/10/26 00:46:47;;;;;;;4.85;2.63;;;;;;;14.45;100.00;98516.69;6371604;27;20131;-72
2023/10/26 00:49:48;;;;;;;;;;;;;;;14.47;100.00;98514.72;6372026;27;20043;-72
2023/10/26 00:52:50;;;;;;;4.82;2.67;;;;;;;14.47;100.00;98507.69;6370259;28;19926;-72
2023/10/26 00:55:52;;;;;;;5.72;3.00;;;;;;;14.50;100.00;98499.50;6370582;27;20058;-72
2023/10/26 00:58:53;;;;;;;;;;;;;;;14.60;100.00;98494.19;6372043;27;20107;-72
2023/10/26 01:01:56;;;;;;;8.50;2.10;;;;;;;14.52;100.00;98487.06;6355644;28;19920;-72
2023/10/26 01:04:57;;;;;;;4.82;2.40;;;;;;;14.52;100.00;98484.44;6344715;28;20052;-72
2023/10/26 01:07:58;;;;;;;4.90;2.03;;;;;;;14.56;100.00;98481.50;6345807;28;20079;-72
2023/10/26 01:10:59;;;;;;;3.88;2.42;;;;;;;14.55;100.00;98475.41;6344562;28;20088;-73
2023/10/26 01:13:59;;;;;;;7.15;2.50;;;;;;;14.51;100.00;98485.38;6344721;28;20411;-72
2023/10/26 01:17:01;;;;;;;5.95;2.22;;;;;;;14.55;100.00;98485.09;6345897;28;20043;-72
2023/10/26 01:20:04;;;;;;;4.90;2.20;;;;;;;14.55;100.00;98477.22;6344512;28;20530;-73
2023/10/26 01:23:05;;;;;;;3.90;1.95;;;;;;;14.56;100.00;98484.97;6345781;28;20456;-72
2023/10/26 01:26:06;;;;;;;5.57;2.17;;;;;;;14.53;100.00;98498.38;6347735;28;20100;-72
2023/10/26 01:29:10;;;;;;;3.53;2.00;;;;;;;14.61;100.00;98497.63;6350657;28;20044;-73
2023/10/26 01:32:10;;;;;;;3.80;2.10;;;;;;;14.56;100.00;98492.00;6350295;28;20035;-72
2023/10/26 01:35:11;;;;;;;5.35;2.28;;;;;;;14.69;100.00;98492.41;6349380;28;20089;-74
2023/10/26 01:38:13;;;;;;;3.25;2.10;;;;;;;14.64;100.00;98478.91;6373118;27;20051;-74
2023/10/26 01:41:17;;;;;;;2.50;1.88;;;;;;;14.73;100.00;98482.41;6374715;27;20075;-72
2023/10/26 01:44:18;;;;;;;3.45;2.05;;;;;;;14.67;100.00;98476.00;6374601;27;20061;-72
2023/10/26 01:47:18;;;;;;;3.88;1.90;;;;;;;14.69;100.00;98466.16;6374999;27;20055;-72
2023/10/26 01:50:19;;;;;;;2.28;1.80;;;;;;;14.65;100.00;98465.63;6375454;27;20035;-72
2023/10/26 01:53:23;;;;;;;2.58;1.80;;;;;;;14.51;100.00;98460.97;6374178;27;20047;-72
2023/10/26 01:56:24;;;;;;;4.25;2.13;;;;;;;14.57;100.00;98462.97;6375628;27;20495;-72
2023/10/26 01:59:25;;;;;;;4.05;2.08;;;;;;;14.49;100.00;98461.09;6375327;27;20062;-72
2023/10/26 02:02:25;;;;;;;3.58;2.15;;;;;;;14.54;100.00;98465.06;6375238;27;20043;-72
2023/10/26 02:05:27;;;;;;;2.63;1.73;;;;;;;14.51;100.00;98460.97;6373855;27;20054;-73
2023/10/26 02:08:29;;;;;;;3.65;2.22;;;;;;;14.48;100.00;98456.84;6374020;27;20195;-72
2023/10/26 02:11:29;;;;;;;5.07;2.05;;;;;;;14.50;100.00;98465.38;6374990;27;20051;-72
2023/10/26 02:14:30;;;;;;;3.33;2.00;;;;;;;14.56;100.00;98465.75;6373881;27;20100;-72
2023/10/26 02:17:31;;;;;;;2.95;2.25;;;;;;;14.54;100.00;98463.28;6375006;27;20126;-72
2023/10/26 02:20:32;;;;;;;4.50;1.83;;;;;;;14.62;100.00;98459.88;6373449;27;20088;-72
2023/10/26 02:23:33;;;;;;;2.17;1.75;;;;;;;14.57;100.00;98443.78;6374882;27;20047;-72
2023/10/26 02:26:33;;;;;;;4.53;2.03;;;;;;;14.61;100.00;98442.50;6373307;27;20039;-72
2023/10/26 02:29:37;;;;;;;4.25;2.00;;;;;;;14.65;100.00;98435.94;6374776;27;20608;-73
2023/10/26 02:32:41;;;;;;;2.58;1.80;;;;;;;14.66;100.00;98435.81;6374287;27;20039;-73
2023/10/26 02:35:43;;;;;;;5.40;2.10;;;;;;;14.69;100.00;98439.91;6374303;27;20055;-73
2023/10/26 02:38:44;;;;;;;4.20;2.15;;;;;;;14.61;100.00;98432.81;6372458;27;20396;-72
2023/10/26 02:41:45;;;;;;;4.63;1.52;;;;;;;14.62;100.00;98434.47;6373193;27;20043;-73
2023/10/26 02:44:46;;;;;;;3.65;1.98;;;;;;;14.60;100.00;98436.44;6374260;27;20054;-72
2023/10/26 02:47:46;;;;;;;3.47;2.03;;;;;;;14.54;100.00;98433.56;6374136;27;20051;-73
2023/10/26 02:50:47;;;;;;;4.00;2.00;;;;;;;14.55;100.00;98445.72;6371602;27;20357;-72
2023/10/26 02:53:48;;;;;;;2.80;1.85;;;;;;;14.63;100.00;98446.59;6368897;27;20062;-72
2023/10/26 02:56:49;;;;;;;3.17;2.00;;;;;;;14.75;100.00;98446.31;6372358;27;20299;-72
2023/10/26 02:59:50;;;;;;;2.25;1.67;;;;;;;14.82;100.00;98439.44;6372582;27;20108;-72
2023/10/26 03:02:51;;;;;;;1.98;1.70;;;;;;;14.75;100.00;98431.38;6350767;27;20683;-72
2023/10/26 03:05:57;;;;;;;2.63;1.80;;;;;;;14.70;100.00;98429.25;6347985;28;20503;-72
2023/10/26 03:08:58;;;;;;;4.03;1.63;;;;;;;14.58;100.00;98427.91;6346903;28;20415;-73
2023/10/26 03:11:59;;;;;;;1.98;1.58;;;;;;;14.62;100.00;98423.97;6347917;28;20043;-72
2023/10/26 03:15:00;;;;;;;3.10;1.60;;;;;;;14.60;100.00;98430.34;6347159;28;20097;-72
2023/10/26 03:18:01;;;;;;;7.28;2.08;;;;;;;14.63;100.00;98435.28;6348010;28;20093;-73
2023/10/26 03:21:03;;;;;;;3.70;1.77;;;;;;;14.62;100.00;98433.63;6346425;28;20086;-73
2023/10/26 03:24:05;;;;;;;3.15;2.20;;;;;;;14.57;100.00;98426.25;6346566;28;20043;-72
2023/10/26 03:27:06;;;;;;;8.43;1.85;;;;;;;14.71;100.00;98422.19;6347722;28;20358;-72
2023/10/26 03:30:07;;;;;;;3.53;1.35;;;;;;;14.64;100.00;98426.41;6347517;28;20066;-72
2023/10/26 03:33:08;;;;;;;6.05;1.67;;;;;;;14.77;100.00;98426.81;6346247;28;20044;-72
2023/10/26 03:36:18;;;;;;;2.95;1.90;;;;;;;14.83;100.00;98425.34;6365934;27;20074;-73
2023/10/26 03:39:19;;;;;;;4.47;1.85;;;;;;;14.86;100.00;98428.44;6353794;27;20050;-73
2023/10/26 03:42:20;;;;;;;2.47;1.60;;;;;;;14.74;100.00;98413.97;6368103;27;20130;-73
2023/10/26 03:45:26;;;;;;;3.65;1.75;;;;;;;14.90;100.00;98414.00;6360581;27;20047;-72
2023/10/26 03:48:27;;;;;;;3.65;1.77;;;;;;;14.82;100.00;98410.56;6365554;27;20076;-73
2023/10/26 03:51:28;;;;;;;2.80;1.83;;;;;;;14.88;100.00;98413.34;6371235;27;20047;-73
2023/10/26 03:54:29;;;;;;;1.55;1.30;;;;;;;14.91;100.00;98405.16;6364169;27;20047;-72
2023/10/26 03:57:32;;;;;;;3.17;1.58;;;;;;;14.87;100.00;98416.97;6345965;28;20048;-72
2023/10/26 04:00:33;;;;;;;2.45;1.55;;;;;;;14.85;100.00;98408.44;6346338;28;20457;-72
2023/10/26 04:03:36;;;;;;;4.53;2.00;;;;;;;14.97;100.00;98411.59;6345803;28;20048;-72
2023/10/26 04:06:37;;;;;;;2.58;1.80;;;;;;;14.95;100.00;98402.22;6346657;28;20067;-72
2023/10/26 04:09:38;;;;;;;3.13;1.42;;;;;;;14.90;100.00;98407.94;6345571;28;20048;-72
2023/10/26 04:12:38;;;;;;;3.50;1.88;;;;;;;15.00;100.00;98410.44;6347674;27;20064;-72
2023/10/26 04:15:41;;;;;;;4.25;1.65;;;;;;;15.04;100.00;98409.94;6346864;28;20640;-72
2023/10/26 04:18:45;;;;;;;2.25;1.30;;;;;;;14.95;100.00;98412.72;6356548;27;20065;-73
2023/10/26 04:21:46;;;;;;;3.22;1.50;;;;;;;14.92;100.00;98408.63;6370960;27;20042;-72
2023/10/26 04:24:46;;;;;;;2.90;1.50;;;;;;;14.85;100.00;98407.63;6364512;27;20384;-72
2023/10/26 04:27:47;;;;;;;1.45;1.20;;;;;;;14.99;100.00;98401.75;6354829;27;20054;-73
2023/10/26 04:30:49;;;;;;;3.53;1.52;;;;;;;14.91;100.00;98405.16;6359961;27;20055;-73
2023/10/26 04:33:49;;;;;;;2.10;1.65;;;;;;;14.98;100.00;98401.91;6362750;27;20130;-72
2023/10/26 04:36:50;;;;;;;2.58;1.48;;;;;;;14.92;100.00;98408.63;6352362;28;20397;-72
2023/10/26 04:39:51;;;;;;;4.53;1.55;;;;;;;14.89;100.00;98404.50;6359434;28;20054;-72
2023/10/26 04:42:54;;;;;;;1.70;1.33;;;;;;;14.98;100.00;98402.72;6346460;28;20066;-72
2023/10/26 04:45:55;;;;;;;5.40;1.92;;;;;;;14.91;100.00;98404.34;6360903;28;20058;-72
2023/10/26 04:48:56;;;;;;;4.25;2.03;;;;;;;14.95;100.00;98407.47;6356415;27;20051;-72
2023/10/26 04:51:57;;;;;;;6.13;2.10;;;;;;;14.89;100.00;98399.25;6361161;27;20039;-72
2023/10/26 04:55:01;;;;;;;4.57;1.50;;;;;;;14.97;100.00;98387.09;6369402;27;20071;-72
2023/10/26 04:58:03;;;;;;;2.65;1.33;;;;;;;14.91;100.00;98392.03;6370137;28;20411;-73
2023/10/26 05:01:07;;;;;;;2.58;1.40;;;;;;;14.95;100.00;98395.16;6373319;27;20055;-73
2023/10/26 05:04:09;;;;;;;4.20;1.40;;;;;;;14.91;100.00;98392.03;6375286;27;20047;-73
2023/10/26 05:07:10;;;;;;;3.90;1.73;;;;;;;14.91;100.00;98396.47;6376421;27;20051;-72
2023/10/26 05:10:12;;;;;;;2.70;1.35;;;;;;;14.89;100.00;98396.63;6376165;27;20047;-73
2023/10/26 05:13:13;;;;;;;3.72;1.73;;;;;;;14.96;100.00;98396.00;6375010;27;20047;-73
2023/10/26 05:16:14;;;;;;;2.97;1.95;;;;;;;15.00;100.00;98407.81;6376312;27;20406;-74
2023/10/26 05:19:15;;;;;;;3.65;1.60;;;;;;;14.89;100.00;98406.31;6374940;27;20148;-73
2023/10/26 05:22:17;;;;;;;8.63;3.00;;;;;;;15.06;100.00;98409.78;6375852;27;20160;-72
2023/10/26 05:25:18;;;;;;;9.80;2.15;;;;;;;14.91;100.00;98401.72;6375929;27;20504;-72
2023/10/26 05:28:19;;;;;;;5.72;1.98;;;;;;;14.97;100.00;98408.97;6374631;27;20050;-71
2023/10/26 05:31:22;;;;;;;2.25;1.60;;;;;;;15.04;100.00;98409.94;6375804;27;20086;-72
2023/10/26 05:34:23;;;;;;;2.95;1.70;;;;;;;15.06;100.00;98420.28;6375579;27;20155;-73
2023/10/26 05:37:24;;;;;;;2.65;1.40;;;;;;;15.11;100.00;98415.38;6374449;27;20414;-73
2023/10/26 05:40:25;;;;;;;6.65;1.60;;;;;;;15.14;100.00;98411.63;6374268;27;20126;-72
2023/10/26 05:43:26;;;;;;;4.93;1.52;;;;;;;15.06;100.00;98418.47;6375657;27;20051;-73
2023/10/26 05:46:29;;;;;;;3.70;1.42;;;;;;;15.12;100.00;98419.66;6374180;27;20050;-72
2023/10/26 05:49:30;;;;;;;1.10;1.00;;;;;;;15.14;100.00;98420.31;6375386;27;20517;-72
2023/10/26 05:52:31;;;;;;;5.97;1.23;;;;;;;15.25;100.00;98419.97;6373916;27;20051;-73
2023/10/26 05:55:32;;;;;;;2.00;1.15;;;;;;;15.19;100.00;98418.00;6375184;27;20141;-73
2023/10/26 05:58:33;;;;;;;2.38;1.50;;;;;;;15.15;100.00;98434.25;6375307;27;20460;-72
2023/10/26 06:01:36;;;;;;;1.55;0.82;;;;;;;15.14;100.00;98428.19;6373880;27;20407;-73
2023/10/26 06:04:38;;;;;;;1.52;1.00;;;;;;;15.32;100.00;98431.50;6374957;27;20525;-73
2023/10/26 06:07:39;;;;;;;2.38;1.10;;;;;;;15.43;100.00;98434.78;6373587;27;20486;-72
2023/10/26 06:10:39;;;;;;;1.45;0.88;;;;;;;15.42;100.00;98439.22;6374332;27;20054;-72
2023/10/26 06:13:40;;;;;;;2.00;0.88;;;;;;;15.46;100.00;98429.19;6374007;27;20047;-73
2023/10/26 06:16:41;;;;;;;3.58;1.98;;;;;;;15.36;100.00;98439.03;6374657;27;20088;-73
2023/10/26 06:19:45;;;;;;;4.13;1.55;;;;;;;15.42;100.00;98435.75;6373448;27;20453;-73
2023/10/26 06:22:46;;;;;;;5.93;1.38;;;;;;;15.51;100.00;98437.41;6374760;27;20043;-72
2023/10/26 06:25:46;;;;;;;3.10;1.15;;;;;;;15.47;100.00;98441.34;6373336;27;20069;-73
2023/10/26 06:28:47;;;;;;;5.78;1.55;;;;;;;15.37;100.00;98433.63;6372696;27;20051;-72
2023/10/26 06:31:48;;;;;;;1.83;0.70;;;;;;;15.43;100.00;98432.97;6373033;27;20047;-73
2023/10/26 06:34:50;;;;;;;1.08;0.77;;;;;;;15.56;100.00;98447.44;6372815;27;20130;-73
2023/10/26 06:37:51;;;;;;;4.15;1.27;;;;;;;15.37;100.00;98438.88;6374240;27;20054;-72
2023/10/26 06:40:52;;;;;;;2.78;1.05;;;;;;;15.63;100.00;98437.91;6372682;27;20048;-73
2023/10/26 06:43:53;;;;;;;2.80;1.02;;;;;;;15.62;100.00;98444.13;6372964;27;20420;-72
2023/10/26 06:46:54;;;;;;;1.67;0.95;;;;;;;15.60;100.00;98443.47;6372542;27;20415;-72
2023/10/26 06:49:55;;;;;;;4.72;1.10;;;;;;;15.71;100.00;98437.91;6372569;27;20055;-73
2023/10/26 06:52:56;;;;;;;2.03;0.90;;;;;;;15.62;100.00;98433.63;6373581;27;20405;-73
2023/10/26 06:55:58;;;;;;;1.42;0.68;;;;;;;15.80;100.00;98436.94;6373744;27;20047;-73
2023/10/26 06:58:59;;;;;;;5.47;1.08;;;;;;;15.82;100.00;98434.13;6372439;27;20043;-73
2023/10/26 07:02:00;;;;;;;4.47;1.05;;;;;;;15.93;100.00;98440.84;6373709;27;20046;-72
2023/10/26 07:05:02;;;;;;;2.88;1.30;;;;;;;15.93;100.00;98439.03;6372310;27;20050;-72
2023/10/26 07:08:03;;;;;;;;;;;;;;;16.06;100.00;98436.72;6372316;27;20469;-73
2023/10/26 07:11:05;;;;;;;6.18;1.15;;;;;;;15.87;100.00;98435.25;6373169;27;19919;-73
2023/10/26 07:14:08;;;;;;;1.95;1.10;;;;;;;15.96;100.00;98435.25;6372017;27;20047;-72
2023/10/26 07:17:12;;;;;;;5.47;1.30;;;;;;;16.05;100.00;98435.06;6373099;27;20486;-72
2023/10/26 07:20:13;;;;;;;4.13;1.40;;;;;;;16.18;100.00;98431.91;6373247;27;20054;-72
2023/10/26 07:23:14;;;;;;;2.05;1.02;;;;;;;16.18;100.00;98434.53;6372906;27;20055;-73
2023/10/26 07:26:18;;;;;;;2.92;1.00;;;;;;;16.17;100.00;98438.16;6371716;27;20470;-72
2023/10/26 07:29:19;;;;;;;2.72;1.02;;;;;;;16.20;100.00;98437.81;6373060;27;20043;-73
2023/10/26 07:32:20;;;;;;;1.63;0.90;;;;;;;16.26;100.00;98439.78;6371001;27;20067;-73
2023/10/26 07:35:21;;;;;;;5.45;1.63;;;;;;;16.44;99.78;98442.19;6372950;27;20058;-73
2023/10/26 07:38:28;;;;;;;2.85;1.10;;;;;;;16.48;99.44;98440.84;6372719;27;20058;-72
2023/10/26 07:41:29;;;;;;;3.55;1.30;;;;;;;16.45;99.39;98445.63;6372446;27;20380;-73
2023/10/26 07:44:33;;;;;;;7.22;1.48;;;;;;;16.68;98.39;98457.06;6371336;27;20047;-72
2023/10/26 07:47:34;;;;;;;4.22;1.42;;;;;;;16.45;98.75;98441.22;6372338;27;20055;-73
2023/10/26 07:50:35;;;;;;;5.57;3.30;;;;;;;16.49;98.73;98441.66;6372393;27;20134;-72
2023/10/26 07:53:36;;;;;;;7.00;3.35;;;;;;;16.44;99.03;98447.44;6372794;27;20057;-72
2023/10/26 07:56:41;;;;;;;12.82;6.03;;;;;;;16.72;97.64;98449.66;6371190;27;20055;-72
2023/10/26 07:59:44;;;;;;;10.10;5.35;;;;;;;16.96;97.38;98450.53;6370946;27;20055;-72
2023/10/26 08:02:45;;;;;;;5.78;2.70;;;;;;;17.10;96.46;98447.16;6372316;27;20377;-72
2023/10/26 08:05:55;;;;;;;1.88;1.17;;;;;;;17.23;95.37;98452.66;6371990;27;20448;-73
2023/10/26 08:08:58;;;;;;;3.15;1.48;;;;;;;17.28;95.03;98450.34;6372205;27;20049;-73
2023/10/26 08:11:59;;;;;;;5.22;1.30;;;;;;;17.04;93.82;98447.84;6371893;27;20074;-72
2023/10/26 08:15:02;;;;;;;5.35;2.10;;;;;;;16.87;93.89;98452.41;6370633;27;20106;-73
2023/10/26 08:18:03;;;;;;;3.13;1.35;;;;;;;16.88;93.37;98444.34;6370882;27;20510;-73
2023/10/26 08:21:05;;;;;;;1.27;1.02;;;;;;;17.20;92.63;98445.13;6370575;27;20058;-72
2023/10/26 08:24:06;;;;;;;2.65;1.20;;;;;;;17.50;91.55;98448.69;6371880;27;20080;-73
2023/10/26 08:27:07;;;;;;;6.07;1.70;;;;;;;17.46;91.18;98449.19;6370572;27;20043;-72
2023/10/26 08:30:08;;;;;;;8.82;1.25;;;;;;;17.59;90.81;98453.91;6371641;27;20571;-73
2023/10/26 08:33:09;;;;;;;2.33;1.23;;;;;;;17.67;90.62;98438.00;6371668;27;20049;-72
2023/10/26 08:36:10;;;;;;;6.90;0.98;;;;;;;17.61;89.32;98447.44;6370933;27;20047;-73
2023/10/26 08:39:12;;;;;;;4.03;1.38;;;;;;;17.82;89.50;98446.75;6371581;27;20058;-72
2023/10/26 08:42:13;;;;;;;4.68;2.60;;;;;;;17.88;88.45;98443.44;6371848;27;20055;-73
2023/10/26 08:45:24;;;;;;;2.90;2.00;;;;;;;17.52;88.59;98440.59;6371471;27;20047;-73
2023/10/26 08:48:28;;;;;;;4.72;1.48;;;;;;;17.71;88.80;98437.47;6370536;28;20051;-73
2023/10/26 08:51:31;;;;;;;6.05;1.52;;;;;;;17.73;88.50;98440.75;6371511;27;20050;-72
2023/10/26 08:54:32;;;;;;;5.70;1.80;;;;;;;17.67;88.24;98436.19;6371684;27;20055;-72
2023/10/26 08:57:32;;;;;;;2.17;1.20;;;;;;;17.77;87.70;98432.47;6371387;27;20047;-72
2023/10/26 09:00:38;;;;;;;2.17;1.40;;;;;;;17.84;87.46;98442.16;6370189;27;20047;-72
2023/10/26 09:03:39;;;;;;;2.67;1.70;;;;;;;18.04;86.25;98433.72;6370343;28;20126;-72
2023/10/26 09:06:51;;;;;;;4.55;2.13;;;;;;;18.00;86.09;98432.47;6371125;27;20059;-72
2023/10/26 09:09:52;;;;;;;9.00;1.92;;;;;;;18.10;86.45;98435.66;6370383;27;20054;-72
2023/10/26 09:13:06;;;;;;;6.05;1.95;;;;;;;18.18;86.05;98429.44;6371101;27;20051;-72
2023/10/26 09:16:06;;;;;;;3.50;1.80;;;;;;;18.38;84.51;98414.69;6371358;27;20043;-72
2023/10/26 09:19:07;;;;;;;8.20;1.92;;;;;;;18.37;84.89;98413.06;6369931;28;20130;-72
2023/10/26 09:22:12;;;;;;;6.03;1.88;;;;;;;18.46;84.02;98419.88;6371399;27;20051;-73
2023/10/26 09:25:14;;;;;;;3.45;1.80;;;;;;;18.18;85.16;98421.53;6370908;27;20049;-72
2023/10/26 09:28:15;;;;;;;2.22;1.42;;;;;;;18.26;85.50;98414.34;6371123;27;20509;-72
2023/10/26 09:31:17;;;;;;;3.80;1.80;;;;;;;18.18;84.70;98421.53;6369651;27;20047;-73
2023/10/26 09:34:18;;;;;;;8.38;1.90;;;;;;;18.01;84.28;98419.06;6371129;27;20062;-72
2023/10/26 09:37:19;;;;;;;4.95;1.67;;;;;;;18.30;83.84;98414.78;6370887;27;20055;-72
2023/10/26 09:40:24;;;;;;;2.78;1.40;;;;;;;18.39;83.88;98411.06;6371191;27;20123;-73
2023/10/26 09:43:25;;;;;;;6.88;1.50;;;;;;;19.12;79.79;98405.78;6369750;28;20417;-72
2023/10/26 09:46:25;;;;;;;2.97;1.63;;;;;;;19.41;77.70;98406.66;6372785;27;20047;-72
2023/10/26 09:49:27;;;;;;;4.95;2.20;;;;;;;19.55;77.70;98397.03;6375470;27;20074;-73
2023/10/26 09:52:28;;;;;;;3.88;1.48;;;;;;;18.94;78.94;98398.28;6373059;27;20380;-73
2023/10/26 09:55:32;;;;;;;5.90;1.60;;;;;;;18.43;82.23;98393.00;6372836;27;20079;-72
2023/10/26 09:58:40;;;;;;;3.75;1.55;;;;;;;18.37;83.84;98391.94;6349482;27;20284;-72
2023/10/26 10:01:41;;;;;;;2.40;1.77;;;;;;;18.32;83.05;98399.56;6356603;27;20438;-73
2023/10/26 10:04:44;;;;;;;2.45;1.55;;;;;;;18.32;83.43;98386.38;6367855;27;20046;-72
2023/10/26 10:07:45;;;;;;;3.35;1.60;;;;;;;18.39;83.34;98386.47;6374111;27;20058;-73
2023/10/26 10:11:17;;;;;;;3.30;1.50;;;;;;;18.30;83.27;98386.59;6354003;27;20126;-72
2023/10/26 10:14:46;;;;;;;4.70;1.48;;;;;;;18.43;82.89;98388.56;6347765;28;20058;-74
2023/10/26 10:17:48;;;;;;;8.20;1.88;;;;;;;18.28;82.67;98385.94;6347630;28;20163;-73
2023/10/26 10:20:51;;;;;;;8.48;1.80;;;;;;;18.08;83.26;98392.78;6347551;27;20039;-73
2023/10/26 10:23:51;;;;;;;;;;;;;;;18.77;79.86;98395.03;6349029;28;20055;-73
2023/10/26 10:27:12;;;;;;;3.42;1.70;;;;;;;19.17;78.04;98395.50;6347806;28;19920;-73
2023/10/26 10:30:14;;;;;;;3.35;1.70;;;;;;;19.31;76.86;98394.59;6348873;28;20253;-72
2023/10/26 10:33:22;;;;;;;3.25;1.73;;;;;;;19.63;76.18;98392.41;6347493;28;20506;-73
2023/10/26 10:36:23;;;;;;;3.88;1.85;;;;;;;19.79;75.45;98388.69;6347181;28;20158;-73
2023/10/26 10:39:24;;;;;;;3.83;1.50;;;;;;;19.55;73.60;98381.97;6347249;28;20483;-72
2023/10/26 10:42:26;;;;;;;4.70;1.15;;;;;;;19.93;72.98;98381.63;6347188;28;20129;-73
2023/10/26 10:45:29;;;;;;;4.30;0.97;;;;;;;19.72;72.55;98374.56;6347088;28;20100;-72
2023/10/26 10:48:32;;;;;;;1.58;0.82;;;;;;;20.07;72.01;98382.53;6348687;28;20073;-73
2023/10/26 10:51:33;;;;;;;4.57;1.10;;;;;;;20.22;71.41;98375.28;6348332;28;20051;-73
2023/10/26 10:54:34;;;;;;;5.15;1.30;;;;;;;19.60;72.29;98381.38;6348012;28;20048;-72
2023/10/26 10:57:51;;;;;;;3.35;1.25;;;;;;;19.76;72.43;98369.72;6347435;28;20092;-73
2023/10/26 11:00:51;;;;;;;6.28;1.63;;;;;;;19.56;73.14;98377.47;6346732;28;20544;-73
2023/10/26 11:04:03;;;;;;;2.30;1.40;;;;;;;19.57;72.96;98381.78;6347866;28;20051;-73
2023/10/26 11:07:04;;;;;;;4.18;1.08;;;;;;;19.76;71.46;98386.41;6346296;28;20063;-73
2023/10/26 11:10:06;;;;;;;2.67;1.05;;;;;;;20.18;70.60;98382.00;6346540;28;20491;-72
2023/10/26 11:13:07;;;;;;;1.85;0.90;;;;;;;20.11;69.61;98389.88;6346684;28;20096;-73
2023/10/26 11:16:22;;;;;;;2.72;1.02;;;;;;;20.16;69.01;98391.13;6346559;28;20286;-72
2023/10/26 11:19:23;;;;;;;5.45;1.17;;;;;;;20.00;68.66;98384.34;6346324;28;20552;-73
2023/10/26 11:22:24;;;;;;;2.45;0.82;;;;;;;19.96;68.82;98380.44;6347373;28;20047;-72
2023/10/26 11:25:26;;;;;;;3.33;1.02;;;;;;;20.22;68.40;98382.41;6346322;28;20058;-72
2023/10/26 11:28:33;;;;;;;2.63;0.88;;;;;;;19.99;68.22;98383.50;6347157;28;20130;-73
2023/10/26 11:31:39;;;;;;;1.55;0.95;;;;;;;20.15;67.58;98376.28;6347280;28;20047;-72
2023/10/26 11:35:09;;;;;;;1.73;0.82;;;;;;;19.93;68.31;98387.75;6347058;28;20135;-72
2023/10/26 11:38:10;;;;;;;1.95;0.90;;;;;;;19.89;68.79;98388.31;6345353;28;20620;-73
2023/10/26 11:41:11;;;;;;;2.42;1.00;;;;;;;19.84;68.77;98386.25;6345813;28;20050;-73
2023/10/26 11:44:25;;;;;;;6.13;0.77;;;;;;;19.97;68.61;98387.34;6345716;28;20051;-74
2023/10/26 11:47:26;;;;;;;6.82;0.80;;;;;;;20.40;68.54;98379.22;6346881;28;20102;-73
2023/10/26 11:50:32;;;;;;;5.65;1.60;;;;;;;20.36;67.36;98388.59;6346499;28;20075;-73
2023/10/26 11:53:34;;;;;;;3.47;1.13;;;;;;;20.56;67.46;98397.44;6346611;28;20484;-73
2023/10/26 11:56:35;;;;;;;;;;;;;;;20.45;67.98;98398.81;6347155;28;20060;-72
2023/10/26 11:59:38;;;;;;;2.20;1.00;;;;;;;20.64;67.64;98394.63;6346480;28;19923;-73
2023/10/26 12:02:40;;;;;;;4.13;0.82;;;;;;;20.25;68.35;98392.63;6346662;28;20043;-73
2023/10/26 12:05:40;;;;;;;2.42;1.00;;;;;;;19.84;68.27;98403.97;6345130;28;20506;-73
2023/10/26 12:08:41;;;;;;;10.18;1.20;;;;;;;19.97;68.55;98397.94;6344962;28;20048;-73
2023/10/26 12:11:45;;;;;;;0.85;0.75;;;;;;;20.21;68.20;98400.13;6345217;28;20043;-72
2023/10/26 12:14:47;;;;;;;4.93;1.08;;;;;;;19.94;68.08;98404.44;6346731;28;20058;-73
2023/10/26 12:17:48;;;;;;;;;;;;;;;19.84;68.90;98402.16;6345493;28;20047;-73
2023/10/26 12:20:51;;;;;;;1.92;0.95;;;;;;;19.80;68.91;98400.91;6344941;28;20350;-72
2023/10/26 12:23:52;;;;;;;0.80;0.60;;;;;;;19.93;67.58;98414.22;6346041;28;20488;-73
2023/10/26 12:26:56;;;;;;;0.52;0.52;;;;;;;20.19;66.43;98407.44;6346163;28;20134;-73
2023/10/26 12:29:57;;;;;;;2.55;1.23;;;;;;;19.25;69.42;98408.59;6344910;28;20055;-73
2023/10/26 12:32:58;;;;;;;3.23;1.30;;;;;;;19.58;69.49;98409.84;6345835;28;20058;-72
2023/10/26 12:35:59;;;;;;;4.15;1.10;;;;;;;19.78;68.90;98415.34;6344849;28;20268;-72
2023/10/26 12:39:03;;;;;;;8.70;1.25;;;;;;;19.42;70.05;98419.72;6345871;28;20452;-72
2023/10/26 12:42:04;;;;;;;1.92;0.88;;;;;;;19.12;70.35;98411.09;6346039;28;20048;-72
2023/10/26 12:45:05;;;;;;;1.48;0.73;;;;;;;19.05;70.48;98416.31;6344536;28;20083;-72
2023/10/26 12:48:06;;;;;;;3.35;1.05;;;;;;;18.99;72.23;98418.91;6344618;28;20055;-72
2023/10/26 12:51:07;;;;;;;3.20;1.02;;;;;;;18.58;73.14;98424.69;6345651;28;20044;-72
2023/10/26 12:54:10;;;;;;;3.95;1.33;;;;;;;18.36;76.27;98418.53;6344806;28;20514;-72
2023/10/26 12:57:11;;;;;;;6.28;1.15;;;;;;;18.27;76.31;98428.38;6344499;28;20077;-73
2023/10/26 13:00:12;;;;;;;1.60;0.82;;;;;;;18.05;77.97;98422.16;6345532;28;20051;-72
2023/10/26 13:03:13;;;;;;;2.10;0.90;;;;;;;18.11;76.94;98424.88;6345730;28;20047;-72
2023/10/26 13:06:14;;;;;;;2.90;1.40;;;;;;;18.19;76.92;98417.91;6344060;28;20310;-73
2023/10/26 13:09:15;;;;;;;1.73;0.95;;;;;;;18.42;76.24;98415.97;6345621;28;20547;-72
2023/10/26 13:12:16;;;;;;;4.50;1.17;;;;;;;18.31;75.80;98419.88;6344116;28;20097;-72
2023/10/26 13:15:17;;;;;;;6.45;1.08;;;;;;;18.51;75.27;98420.16;6345477;28;20120;-73
2023/10/26 13:18:18;;;;;;;3.35;0.88;;;;;;;18.64;72.93;98423.97;6345381;28;20480;-72
2023/10/26 13:21:19;;;;;;;2.45;0.80;;;;;;;18.78;72.74;98417.81;6346371;28;20127;-73
2023/10/26 13:24:19;;;;;;;2.58;0.95;;;;;;;19.01;73.33;98403.66;6349095;28;20055;-73
2023/10/26 13:27:20;;;;;;;2.88;1.00;;;;;;;19.03;72.78;98404.28;6350041;28;20058;-73
2023/10/26 13:30:21;;;;;;;1.63;0.90;;;;;;;18.87;72.29;98413.28;6349215;28;20054;-72
2023/10/26 13:33:23;;;;;;;2.10;0.87;;;;;;;18.73;71.71;98418.34;6348877;28;20040;-72
2023/10/26 13:36:24;;;;;;;3.30;1.00;;;;;;;18.80;71.84;98413.22;6350191;28;20048;-72
2023/10/26 13:39:27;;;;;;;3.70;1.00;;;;;;;18.89;72.50;98411.25;6349841;28;20142;-72
2023/10/26 13:42:28;;;;;;;3.13;1.30;;;;;;;18.69;72.67;98411.81;6348819;28;20040;-72
2023/10/26 13:45:32;;;;;;;3.05;1.25;;;;;;;18.59;73.23;98419.22;6348561;28;20092;-72
2023/10/26 13:48:33;;;;;;;5.63;1.27;;;;;;;18.69;73.13;98414.44;6348607;28;20044;-73
2023/10/26 13:51:34;;;;;;;8.00;3.03;;;;;;;18.65;72.91;98423.75;6348326;28;20407;-72
2023/10/26 13:54:35;;;;;;;7.70;3.00;;;;;;;18.46;72.88;98422.50;6349777;28;20435;-72
2023/10/26 13:57:36;;;;;;;4.63;1.30;;;;;;;18.43;73.25;98440.53;6348341;28;20082;-72
2023/10/26 14:00:37;;;;;;;5.57;1.52;;;;;;;18.30;73.65;98449.09;6349336;28;20044;-72
2023/10/26 14:03:40;;;;;;;4.60;2.03;;;;;;;18.17;74.34;98446.28;6349261;28;20055;-73
2023/10/26 14:06:44;;;;;;;2.45;1.35;;;;;;;18.17;74.72;98451.56;6349071;28;20063;-72
2023/10/26 14:09:45;;;;;;;1.80;0.93;;;;;;;17.94;74.92;98443.72;6349340;28;20126;-72
2023/10/26 14:12:46;;;;;;;14.68;1.50;;;;;;;17.91;75.69;98450.16;6348109;28;20052;-72